Time;durP1;ratioP1;P1;durP2;ratioP2;P2;SDS_P1;SDS_P2;PMS_P1;PMS_P2;Temp;Humidity;BMP_temperature;BMP_pressure;BME280_temperature;BME280_humidity;BME280_pressure;Samples;Min_cycle;Max_cycle;Signal;HPM_P1;HPM_P2
2023/04/08 00:02:15;;;;;;;;;1.00;0.75;;;;;19.62;35.91;101738.88;5078528;28;45359;-44
2023/04/08 00:04:40;;;;;;;;;5.00;1.00;;;;;19.62;36.08;101733.59;5085931;28;45305;-52
2023/04/08 00:07:06;;;;;;;;;2.00;2.00;;;;;19.62;35.41;101738.03;5093846;28;45370;-51
2023/04/08 00:09:31;;;;;;;;;1.50;1.50;;;;;19.62;35.42;101736.22;5100714;28;45406;-46
2023/04/08 00:11:57;;;;;;;;;1.25;1.25;;;;;19.61;36.05;101734.53;5103366;28;44751;-51
2023/04/08 00:14:22;;;;;;;;;1.00;1.00;;;;;19.61;35.59;101742.44;5105015;27;45267;-56
2023/04/08 00:16:48;;;;;;;;;3.00;1.25;;;;;19.61;35.98;101739.81;5103178;27;44957;-43
2023/04/08 00:19:13;;;;;;;;;1.00;1.00;;;;;19.60;35.63;101730.19;5102029;28;45160;-45
2023/04/08 00:21:38;;;;;;;;;1.00;1.00;;;;;19.60;35.94;101738.09;5100108;28;44700;-43
2023/04/08 00:24:04;;;;;;;;;1.00;1.00;;;;;19.60;36.00;101737.22;5099327;28;45248;-44
2023/04/08 00:26:29;;;;;;;;;2.75;2.00;;;;;19.60;35.86;101739.84;5094701;28;45570;-52
2023/04/08 00:28:55;;;;;;;;;1.00;1.00;;;;;19.59;36.07;101735.50;5093788;28;48650;-43
2023/04/08 00:31:20;;;;;;;;;2.50;1.00;;;;;19.57;36.03;101737.31;5091090;28;45299;-49
2023/04/08 00:33:46;;;;;;;;;0.75;0.75;;;;;19.58;35.66;101741.66;5091530;28;45395;-59
2023/04/08 00:36:11;;;;;;;;;1.00;1.00;;;;;19.59;35.75;101740.75;5077661;28;51672;-57
2023/04/08 00:38:36;;;;;;;;;1.00;1.00;;;;;19.59;35.58;101736.38;5059507;28;45267;-58
2023/04/08 00:41:02;;;;;;;;;1.00;1.00;;;;;19.59;35.98;101746.00;5076414;28;73373;-58
2023/04/08 00:43:27;;;;;;;;;1.00;1.00;;;;;19.59;35.68;101753.91;5077674;28;45207;-57
2023/04/08 00:45:52;;;;;;;;;0.00;0.00;;;;;19.57;35.78;101750.47;5078438;28;45158;-57
2023/04/08 00:48:18;;;;;;;;;1.00;1.00;;;;;19.58;35.58;101750.44;5084939;28;46151;-56
2023/04/08 00:50:45;;;;;;;;;1.00;1.00;;;;;19.56;35.90;101749.63;5086970;28;60760;-51
2023/04/08 00:53:14;;;;;;;;;2.25;1.50;;;;;19.57;35.93;101739.94;5084316;28;45431;-47
2023/04/08 00:55:40;;;;;;;;;3.00;1.00;;;;;19.58;35.61;101752.19;5081013;28;45670;-45
2023/04/08 00:58:05;;;;;;;;;1.00;1.00;;;;;19.58;35.67;101752.19;5080422;28;47181;-46
2023/04/08 01:00:32;;;;;;;;;1.00;1.00;;;;;19.58;35.63;101752.19;5079677;28;45349;-44
2023/04/08 01:03:47;;;;;;;;;1.00;1.00;;;;;19.56;36.16;101754.03;5062839;28;45520;-49
2023/04/08 01:06:30;;;;;;;;;1.00;1.00;;;;;19.56;35.50;101749.63;5063623;28;45267;-57
2023/04/08 01:08:59;;;;;;;;;1.00;1.00;;;;;19.55;35.57;101747.06;5078242;28;46216;-58
2023/04/08 01:11:29;;;;;;;;;0.25;0.25;;;;;19.56;35.74;101748.78;5097510;28;45243;-53
2023/04/08 01:13:56;;;;;;;;;1.00;1.00;;;;;19.55;35.77;101757.56;5096838;28;44755;-58
2023/04/08 01:16:24;;;;;;;;;2.00;2.00;;;;;19.55;35.77;101747.06;5079993;28;45240;-59
2023/04/08 01:18:52;;;;;;;;;1.00;1.00;;;;;19.55;35.83;101757.56;5090540;28;46134;-49
2023/04/08 01:21:18;;;;;;;;;1.00;1.00;;;;;19.53;35.96;101749.72;5079962;28;45265;-49
2023/04/08 01:24:25;;;;;;;;;1.00;1.00;;;;;19.53;35.96;101754.97;5079083;28;45441;-51
2023/04/08 01:26:50;;;;;;;;;1.00;1.00;;;;;19.54;35.77;101753.22;5066525;28;45544;-54
2023/04/08 01:29:16;;;;;;;;;0.75;0.75;;;;;19.53;36.17;101754.97;5076735;28;46288;-52
2023/04/08 01:31:43;;;;;;;;;0.25;0.25;;;;;19.52;35.76;101750.63;5076798;28;45833;-49
2023/04/08 01:34:10;;;;;;;;;1.50;1.50;;;;;19.53;35.75;101748.88;5077140;28;45558;-56
2023/04/08 01:36:38;;;;;;;;;1.00;1.00;;;;;19.53;35.82;101760.25;5077156;28;45378;-55
2023/04/08 01:39:05;;;;;;;;;1.00;1.00;;;;;19.54;35.84;101750.59;5079489;28;46384;-46
2023/04/08 01:41:34;;;;;;;;;0.25;0.25;;;;;19.52;35.58;101748.00;5079650;28;45795;-54
2023/04/08 01:44:01;;;;;;;;;1.00;1.00;;;;;19.53;35.88;101754.97;5088378;28;45263;-44
2023/04/08 01:46:29;;;;;;;;;2.00;1.00;;;;;19.53;35.68;101748.88;5094690;28;45240;-42
2023/04/08 01:48:56;;;;;;;;;1.75;1.00;;;;;19.51;35.85;101753.34;5085955;28;45972;-45
2023/04/08 01:51:22;;;;;;;;;1.00;1.00;;;;;19.52;35.57;101747.16;5088620;28;45235;-56
2023/04/08 01:53:47;;;;;;;;;2.00;0.75;;;;;19.52;35.94;101748.00;5099368;28;45405;-43
2023/04/08 01:56:14;;;;;;;;;0.75;0.75;;;;;19.51;35.97;101746.31;5077649;28;45403;-45
2023/04/08 01:58:48;;;;;;;;;2.00;1.00;;;;;19.52;36.01;101752.41;5075834;28;45521;-43
2023/04/08 02:01:17;;;;;;;;;0.50;0.50;;;;;19.51;35.64;101751.59;5076514;28;45859;-43
2023/04/08 02:03:45;;;;;;;;;1.00;1.00;;;;;19.51;36.06;101751.59;5076494;28;45440;-43
2023/04/08 02:06:11;;;;;;;;;2.00;1.00;;;;;19.51;35.78;101748.94;5076748;28;45519;-56
2023/04/08 02:08:36;;;;;;;;;1.00;1.00;;;;;19.51;35.86;101748.06;5076049;28;46318;-53
2023/04/08 02:11:02;;;;;;;;;2.00;1.00;;;;;19.49;35.85;101747.25;5075902;28;51279;-52
2023/04/08 02:13:29;;;;;;;;;1.00;1.00;;;;;19.52;35.74;101741.91;5076805;28;45330;-58
2023/04/08 02:16:05;;;;;;;;;1.00;1.00;;;;;19.50;35.70;101746.34;5076573;28;45361;-59
2023/04/08 02:18:32;;;;;;;;;1.00;1.00;;;;;19.50;36.19;101738.47;5076677;28;46283;-58
2023/04/08 02:21:10;;;;;;;;;2.00;1.00;;;;;19.50;36.06;101738.47;5076289;28;45370;-59
2023/04/08 02:23:38;;;;;;;;;1.75;1.75;;;;;19.50;36.15;101754.25;5076176;28;45246;-60
2023/04/08 02:26:08;;;;;;;;;1.75;1.00;;;;;19.50;36.11;101754.25;5076494;28;45632;-59
2023/04/08 02:28:34;;;;;;;;;1.25;1.25;;;;;19.49;36.14;101747.25;5076275;28;46627;-59
2023/04/08 02:31:02;;;;;;;;;1.00;1.00;;;;;19.49;35.90;101748.13;5057738;28;45253;-53
2023/04/08 02:33:28;;;;;;;;;1.25;1.25;;;;;19.47;36.06;101742.91;5076948;28;45327;-62
2023/04/08 02:35:54;;;;;;;;;1.50;1.00;;;;;19.47;36.14;101736.81;5077154;28;45561;-58
2023/04/08 02:38:20;;;;;;;;;1.00;1.00;;;;;19.48;35.67;101749.06;5097766;28;46556;-51
2023/04/08 02:40:48;;;;;;;;;4.50;1.25;;;;;19.45;35.89;101741.28;5077066;28;46056;-47
2023/04/08 02:43:14;;;;;;;;;1.00;1.00;;;;;19.47;35.79;101744.72;5076184;28;45470;-49
2023/04/08 02:45:43;;;;;;;;;2.00;2.00;;;;;19.47;36.08;101748.19;5076190;28;45196;-45
2023/04/08 02:48:09;;;;;;;;;1.00;1.00;;;;;19.46;35.84;101746.47;5075819;28;46185;-43
2023/04/08 02:50:34;;;;;;;;;1.00;1.00;;;;;19.47;35.74;101744.72;5075758;28;45362;-59
2023/04/08 02:53:00;;;;;;;;;0.50;0.50;;;;;19.45;36.28;101741.28;5076318;28;45353;-59
2023/04/08 02:55:25;;;;;;;;;2.00;1.00;;;;;19.43;36.21;101743.09;5077525;28;45284;-59
2023/04/08 02:57:50;;;;;;;;;2.00;1.00;;;;;19.46;35.81;101743.84;5079317;28;46251;-57
2023/04/08 03:00:16;;;;;;;;;1.00;1.00;;;;;19.45;36.29;101744.78;5078867;28;57819;-49
2023/04/08 03:02:41;;;;;;;;;1.50;0.25;;;;;19.46;35.79;101750.88;5079404;28;45397;-55
2023/04/08 03:05:08;;;;;;;;;0.00;0.00;;;;;19.44;36.12;101748.31;5085126;28;45361;-56
2023/04/08 03:07:34;;;;;;;;;1.00;1.00;;;;;19.45;35.79;101742.13;5096118;28;46312;-56
2023/04/08 03:09:59;;;;;;;;;1.25;0.75;;;;;19.45;35.82;101749.16;5104858;28;44615;-58
2023/04/08 03:12:26;;;;;;;;;0.75;0.75;;;;;19.44;36.18;101750.06;5085359;28;45405;-50
2023/04/08 03:14:51;;;;;;;;;1.00;1.00;;;;;19.45;35.66;101752.66;5078583;28;45529;-51
2023/04/08 03:17:17;;;;;;;;;3.00;1.75;;;;;19.45;36.17;101757.91;5082404;28;45355;-45
2023/04/08 03:19:42;;;;;;;;;1.25;1.25;;;;;19.45;35.81;101751.78;5079438;28;48021;-45
2023/04/08 03:22:10;;;;;;;;;1.00;1.00;;;;;19.44;35.69;101750.94;5078781;28;45310;-47
2023/04/08 03:24:36;;;;;;;;;2.00;1.00;;;;;19.45;35.67;101751.78;5079090;28;45555;-44
2023/04/08 03:27:01;;;;;;;;;1.75;1.00;;;;;19.44;36.22;101745.69;5079138;28;47286;-44
2023/04/08 03:29:27;;;;;;;;;2.25;1.00;;;;;19.43;36.18;101751.84;5079091;28;45457;-43
2023/04/08 03:31:52;;;;;;;;;1.00;1.00;;;;;19.43;35.54;101743.09;5078446;28;64965;-50
2023/04/08 03:34:17;;;;;;;;;1.00;1.00;;;;;19.44;36.16;101750.94;5079790;28;51345;-42
2023/04/08 03:36:43;;;;;;;;;1.00;1.00;;;;;19.43;35.96;101751.84;5087493;28;46149;-47
2023/04/08 03:39:09;;;;;;;;;1.75;1.00;;;;;19.43;35.74;101746.59;5091050;28;45457;-43
2023/04/08 03:41:34;;;;;;;;;0.00;0.00;;;;;19.42;35.65;101744.00;5103486;28;44769;-52
2023/04/08 03:44:00;;;;;;;;;1.00;1.00;;;;;19.43;36.08;101750.97;5084651;28;45303;-59
2023/04/08 03:46:25;;;;;;;;;3.00;1.33;;;;;19.43;36.06;101754.47;5078599;28;56023;-59
2023/04/08 03:48:50;;;;;;;;;1.00;1.00;;;;;19.41;35.81;101758.94;5078583;28;49584;-60
2023/04/08 03:51:16;;;;;;;;;1.00;1.00;;;;;19.41;36.22;101755.44;5078616;28;45291;-58
2023/04/08 03:53:41;;;;;;;;;1.00;1.00;;;;;19.40;35.73;101761.63;5078509;28;51653;-59
2023/04/08 03:56:06;;;;;;;;;1.00;1.00;;;;;19.38;35.74;101756.41;5085390;27;71759;-44
2023/04/08 03:58:32;;;;;;;;;0.00;0.00;;;;;19.40;36.16;101757.22;5095493;28;45301;-59
2023/04/08 04:00:57;;;;;;;;;1.00;1.00;;;;;19.39;36.01;101760.75;5078653;28;58493;-48
2023/04/08 04:03:23;;;;;;;;;1.00;1.00;;;;;19.39;36.17;101766.00;5078612;28;45221;-50
2023/04/08 04:05:49;;;;;;;;;2.00;1.00;;;;;19.39;36.16;101752.03;5078248;28;46244;-53
2023/04/08 04:08:14;;;;;;;;;1.00;1.00;;;;;19.40;36.29;101759.00;5077472;28;45381;-56
2023/04/08 04:10:39;;;;;;;;;3.00;2.00;;;;;19.39;35.94;101760.75;5078250;28;45339;-60
2023/04/08 04:13:05;;;;;;;;;2.25;1.50;;;;;19.40;35.80;101770.34;5078480;28;45363;-58
2023/04/08 04:15:30;;;;;;;;;3.00;1.00;;;;;19.39;36.27;101752.88;5077560;28;46338;-54
2023/04/08 04:17:56;;;;;;;;;3.00;2.00;;;;;19.39;35.80;101758.13;5077631;28;45326;-44
2023/04/08 04:20:21;;;;;;;;;2.00;1.67;;;;;19.38;35.96;101758.19;5077281;28;57649;-49
2023/04/08 04:22:47;;;;;;;;;2.00;1.00;;;;;19.39;35.89;101758.13;5077443;28;45422;-49
2023/04/08 04:25:13;;;;;;;;;1.00;1.00;;;;;19.37;35.79;101759.94;5077494;28;47357;-49
2023/04/08 04:27:38;;;;;;;;;1.00;1.00;;;;;19.37;36.10;101753.84;5077588;28;45340;-49
2023/04/08 04:30:08;;;;;;;;;1.00;1.00;;;;;19.38;36.17;101764.28;5078250;28;45299;-50
2023/04/08 04:32:33;;;;;;;;;1.75;1.75;;;;;19.38;36.25;101769.53;5078444;28;45543;-47
2023/04/08 04:34:59;;;;;;;;;2.00;2.00;;;;;19.37;35.65;101765.19;5078813;28;45382;-57
2023/04/08 04:37:25;;;;;;;;;1.75;1.75;;;;;19.37;36.46;101764.34;5078429;28;45443;-58
2023/04/08 04:39:50;;;;;;;;;3.00;1.50;;;;;19.34;35.91;101761.81;5077702;28;45298;-52
2023/04/08 04:42:15;;;;;;;;;2.75;1.25;;;;;19.35;35.93;101763.53;5082329;28;45413;-50
2023/04/08 04:44:41;;;;;;;;;1.00;1.00;;;;;19.34;35.93;101764.44;5084172;28;45606;-57
2023/04/08 04:47:06;;;;;;;;;2.25;2.00;;;;;19.32;36.28;101772.41;5086542;28;45444;-57
2023/04/08 04:49:31;;;;;;;;;3.00;1.00;;;;;19.32;35.77;101782.91;5083546;28;60798;-58
2023/04/08 04:51:57;;;;;;;;;1.00;1.00;;;;;19.31;35.75;101782.03;5082280;28;51857;-58
2023/04/08 04:54:22;;;;;;;;;1.00;1.00;;;;;19.31;35.92;101786.47;5085662;28;46333;-58
2023/04/08 04:56:47;;;;;;;;;3.25;3.25;;;;;19.31;36.28;101796.97;5081269;28;53333;-49
2023/04/08 04:59:13;;;;;;;;;8.00;5.50;;;;;19.30;36.04;101805.75;5081161;28;45318;-58
2023/04/08 05:01:39;;;;;;;;;9.50;6.50;;;;;19.29;35.68;101791.75;5082531;28;45474;-58
2023/04/08 05:04:05;;;;;;;;;7.75;6.75;;;;;19.27;35.72;101808.50;5081069;28;46205;-57
2023/04/08 05:06:30;;;;;;;;;9.00;8.75;;;;;19.27;36.04;101808.50;5089946;28;44681;-58
2023/04/08 05:08:56;;;;;;;;;8.00;8.00;;;;;19.26;35.90;101805.03;5085733;28;45307;-59
2023/04/08 05:11:21;;;;;;;;;9.33;8.33;;;;;19.25;36.01;101797.16;5082526;28;51446;-55
2023/04/08 05:13:46;;;;;;;;;12.50;10.00;;;;;19.25;35.76;101803.31;5082199;28;56433;-58
2023/04/08 05:16:12;;;;;;;;;10.00;9.25;;;;;19.26;35.86;101807.66;5089828;28;45302;-49
2023/04/08 05:18:40;;;;;;;;;8.00;8.00;;;;;19.26;36.20;101810.28;5091841;28;52704;-53
2023/04/08 05:21:06;;;;;;;;;9.00;9.00;;;;;19.29;35.79;101819.81;5090325;28;45374;-57
2023/04/08 05:23:31;;;;;;;;;10.75;9.00;;;;;19.29;36.16;101812.78;5090582;28;45312;-57
2023/04/08 05:25:56;;;;;;;;;7.67;7.00;;;;;19.27;36.02;101817.25;5092404;28;64872;-50
2023/04/08 05:28:21;;;;;;;;;9.67;7.33;;;;;19.29;35.74;101815.41;5103269;27;58674;-49
2023/04/08 05:30:50;;;;;;;;;8.25;7.50;;;;;19.30;35.89;101825.00;5091928;28;45353;-45
2023/04/08 05:33:16;;;;;;;;;8.25;7.00;;;;;19.29;36.15;101817.19;5099384;28;46110;-54
2023/04/08 05:35:41;;;;;;;;;8.50;7.50;;;;;19.29;35.67;101835.59;5102093;28;45162;-50
2023/04/08 05:38:07;;;;;;;;;11.50;7.75;;;;;19.30;35.98;101838.16;5103994;28;44706;-47
2023/04/08 05:40:32;;;;;;;;;7.75;7.25;;;;;19.30;36.08;101835.53;5103141;27;45805;-44
2023/04/08 05:42:57;;;;;;;;;7.25;6.00;;;;;19.30;35.48;101830.25;5099754;28;46552;-47
2023/04/08 05:45:23;;;;;;;;;8.25;8.25;;;;;19.31;36.07;101832.00;5099366;28;60775;-46
2023/04/08 05:47:48;;;;;;;;;7.25;7.25;;;;;19.31;35.80;101839.88;5100260;28;45148;-46
2023/04/08 05:50:13;;;;;;;;;9.25;6.00;;;;;19.32;35.63;101843.38;5097187;28;44779;-45
2023/04/08 05:52:43;;;;;;;;;8.00;6.00;;;;;19.32;35.75;101840.75;5082789;28;45923;-45
2023/04/08 05:55:09;;;;;;;;;6.50;6.50;;;;;19.32;35.75;101843.38;5081011;28;45331;-46
2023/04/08 05:57:35;;;;;;;;;5.50;5.00;;;;;19.32;35.75;101853.88;5078887;28;45311;-44
2023/04/08 06:00:00;;;;;;;;;6.00;6.00;;;;;19.31;36.11;101855.66;5078812;28;45432;-46
2023/04/08 06:02:25;;;;;;;;;6.00;5.67;;;;;19.33;35.77;101858.25;5077720;28;72677;-43
2023/04/08 06:04:51;;;;;;;;;7.00;5.25;;;;;19.33;35.73;101860.88;5085811;28;45218;-45
2023/04/08 06:07:16;;;;;;;;;7.00;6.00;;;;;19.33;35.69;101858.25;5098010;28;45172;-49
2023/04/08 06:09:41;;;;;;;;;5.50;5.50;;;;;19.34;35.66;101859.97;5097698;28;44954;-50
2023/04/08 06:12:06;;;;;;;;;7.00;6.00;;;;;19.33;36.04;101855.63;5092640;28;61391;-49
2023/04/08 06:14:32;;;;;;;;;7.75;6.00;;;;;19.32;36.07;101864.41;5093725;28;45260;-44
2023/04/08 06:16:57;;;;;;;;;7.00;5.25;;;;;19.34;35.72;101867.84;5079901;28;45199;-48
2023/04/08 06:19:23;;;;;;;;;6.00;4.25;;;;;19.30;35.79;101859.19;5059169;28;45636;-55
2023/04/08 06:21:50;;;;;;;;;6.00;4.25;;;;;19.33;35.81;101863.50;5077648;28;46863;-47
2023/04/08 06:24:15;;;;;;;;;4.00;4.00;;;;;19.33;35.75;101867.88;5077662;28;45918;-45
2023/04/08 06:26:41;;;;;;;;;5.25;4.00;;;;;19.34;36.01;101872.22;5059385;28;45553;-44
2023/04/08 06:29:07;;;;;;;;;6.25;4.00;;;;;19.34;35.67;101873.09;5077187;28;45549;-54
2023/04/08 06:31:32;;;;;;;;;4.25;4.25;;;;;19.34;35.85;101872.22;5061052;28;47292;-58
2023/04/08 06:33:57;;;;;;;;;3.00;3.00;;;;;19.34;35.79;101870.47;5079911;28;45515;-59
2023/04/08 06:36:22;;;;;;;;;5.33;5.33;;;;;19.34;36.04;101872.22;5095647;28;64325;-55
2023/04/08 06:38:48;;;;;;;;;5.00;3.00;;;;;19.35;36.17;101876.59;5081557;28;47428;-48
2023/04/08 06:41:13;;;;;;;;;4.33;4.33;;;;;19.35;35.64;101880.06;5079181;28;67942;-57
2023/04/08 06:43:38;;;;;;;;;4.00;4.00;;;;;19.35;35.64;101884.47;5079430;28;48623;-52
2023/04/08 06:46:04;;;;;;;;;6.00;5.00;;;;;19.34;35.73;101886.25;5061512;28;45257;-52
2023/04/08 06:48:29;;;;;;;;;5.25;4.00;;;;;19.34;35.70;101894.13;5081143;28;45281;-53
2023/04/08 06:51:00;;;;;;;;;4.00;4.00;;;;;19.34;35.82;101902.03;5086256;28;45369;-53
2023/04/08 06:53:28;;;;;;;;;5.75;5.75;;;;;19.35;35.89;101908.13;5082982;28;45926;-58
2023/04/08 06:55:53;;;;;;;;;4.00;3.75;;;;;19.35;35.90;101908.13;5079745;28;45389;-55
2023/04/08 06:58:18;;;;;;;;;0.00;0.00;;;;;19.35;35.55;101914.22;5080321;28;45405;-58
2023/04/08 07:00:44;;;;;;;;;5.00;5.00;;;;;19.35;35.91;101919.47;5080162;28;52676;-50
2023/04/08 07:03:12;;;;;;;;;4.25;4.00;;;;;19.36;35.93;101923.00;5085675;28;45208;-53
2023/04/08 07:05:37;;;;;;;;;6.00;6.00;;;;;19.35;35.51;101919.47;5084433;28;45404;-46
2023/04/08 07:08:04;;;;;;;;;4.25;4.25;;;;;19.35;36.07;101919.47;5082230;28;45602;-54
2023/04/08 07:10:29;;;;;;;;;3.25;3.25;;;;;19.33;35.49;101921.34;5080004;28;45977;-44
2023/04/08 07:12:55;;;;;;;;;4.75;3.75;;;;;19.32;35.94;101930.13;5081271;28;45331;-47
2023/04/08 07:15:21;;;;;;;;;4.75;4.00;;;;;19.31;35.81;101923.16;5088722;28;45319;-49
2023/04/08 07:17:46;;;;;;;;;7.50;3.50;;;;;19.29;35.53;101928.44;5104615;28;44824;-52
2023/04/08 07:20:12;;;;;;;;;4.75;3.00;;;;;19.28;35.56;101928.50;5080973;28;45855;-54
2023/04/08 07:22:38;;;;;;;;;3.00;3.00;;;;;19.29;35.81;101927.59;5079248;28;45813;-48
2023/04/08 07:25:04;;;;;;;;;3.75;3.00;;;;;19.27;35.48;101924.13;5078981;28;45313;-55
2023/04/08 07:27:29;;;;;;;;;5.00;3.00;;;;;19.26;35.73;101930.31;5079042;28;45524;-58
2023/04/08 07:29:55;;;;;;;;;3.25;2.00;;;;;19.27;35.94;101930.28;5078760;28;45333;-58
2023/04/08 07:32:20;;;;;;;;;3.25;3.25;;;;;19.29;35.52;101930.22;5078868;28;45334;-54
2023/04/08 07:34:46;;;;;;;;;4.50;4.50;;;;;19.29;35.83;101925.81;5081885;28;45264;-48
2023/04/08 07:37:11;;;;;;;;;4.25;4.25;;;;;19.31;35.63;101928.41;5085824;28;45220;-55
2023/04/08 07:39:36;;;;;;;;;4.00;3.00;;;;;19.31;35.90;101934.50;5082075;28;48856;-46
2023/04/08 07:42:02;;;;;;;;;3.00;3.00;;;;;19.34;35.89;101938.81;5076853;28;64704;-57
2023/04/08 07:44:27;;;;;;;;;3.00;3.00;;;;;19.33;35.66;101936.22;5078454;28;45316;-58
2023/04/08 07:46:52;;;;;;;;;2.67;2.67;;;;;19.36;36.11;101936.97;5078530;28;57340;-59
2023/04/08 07:49:18;;;;;;;;;4.25;2.75;;;;;19.37;35.50;101937.84;5079290;28;51665;-58
2023/04/08 07:51:43;;;;;;;;;3.00;3.00;;;;;19.37;35.55;101935.22;5079170;28;45358;-58
2023/04/08 07:54:11;;;;;;;;;5.75;4.00;;;;;19.37;35.69;101949.22;5082145;28;45413;-55
2023/04/08 07:56:39;;;;;;;;;2.00;2.00;;;;;19.38;35.79;101940.41;5096898;28;45318;-48
2023/04/08 07:59:05;;;;;;;;;5.00;3.25;;;;;19.39;35.66;101943.94;5080480;28;46181;-51
2023/04/08 08:01:33;;;;;;;;;3.50;3.50;;;;;19.39;35.69;101942.16;5088169;28;45227;-53
2023/04/08 08:03:59;;;;;;;;;3.00;3.00;;;;;19.41;35.64;101945.59;5084174;28;45235;-55
2023/04/08 08:06:24;;;;;;;;;3.00;3.00;;;;;19.43;35.54;101948.16;5078896;28;45411;-44
2023/04/08 08:08:50;;;;;;;;;4.75;3.00;;;;;19.43;35.61;101946.41;5077453;28;46193;-49
2023/04/08 08:11:15;;;;;;;;;4.50;3.00;;;;;19.45;35.94;101947.22;5078156;28;45440;-58
2023/04/08 08:13:41;;;;;;;;;5.00;4.00;;;;;19.46;36.02;101948.91;5060036;28;45305;-53
2023/04/08 08:16:07;;;;;;;;;3.50;3.50;;;;;19.48;36.03;101946.25;5078898;28;45370;-52
2023/04/08 08:18:33;;;;;;;;;3.25;3.25;;;;;19.50;35.71;101954.06;5078842;28;46575;-45
2023/04/08 08:21:00;;;;;;;;;6.00;5.75;;;;;19.52;35.65;101952.25;5078008;28;45349;-53
2023/04/08 08:23:26;;;;;;;;;2.50;2.50;;;;;19.55;36.25;101949.53;5077766;28;45177;-50
2023/04/08 08:26:01;;;;;;;;;3.00;3.00;;;;;19.58;35.60;101952.03;5078423;28;45464;-48
2023/04/08 08:28:27;;;;;;;;;3.00;3.00;;;;;19.64;36.15;101951.84;5077669;28;46153;-51
2023/04/08 08:30:52;;;;;;;;;3.00;3.00;;;;;19.70;35.77;101956.88;5078497;28;45382;-55
2023/04/08 08:33:18;;;;;;;;;3.00;3.00;;;;;19.76;36.21;101951.44;5083754;28;45310;-56
2023/04/08 12:14:15;;;;;;;;;4.00;3.00;;;;;20.45;35.41;101889.34;5162076;22;45220;-56
2023/04/08 12:20:03;;;;;;;;;2.00;2.00;;;;;20.45;35.55;101883.22;5098299;27;46008;-45
2023/04/08 12:22:28;;;;;;;;;2.25;2.00;;;;;20.46;35.35;101882.28;5098046;27;45198;-46
2023/04/08 12:24:53;;;;;;;;;5.00;3.00;;;;;20.47;35.75;101874.34;5097762;27;62786;-44
2023/04/08 12:27:19;;;;;;;;;4.33;2.67;;;;;20.50;35.90;101883.88;5096850;27;64005;-45
2023/04/08 12:29:45;;;;;;;;;3.00;2.50;;;;;20.51;35.75;101885.59;5086587;27;45384;-44
2023/04/08 12:32:10;;;;;;;;;8.00;3.75;;;;;20.52;35.91;101876.78;5077728;27;45444;-44
2023/04/08 12:34:36;;;;;;;;;3.25;3.00;;;;;20.52;35.95;101874.16;5078206;27;45306;-44
2023/04/08 12:37:01;;;;;;;;;7.00;6.75;;;;;20.52;35.96;101880.28;5076946;28;45452;-44
2023/04/08 12:39:27;;;;;;;;;3.50;3.00;;;;;20.52;35.84;101882.06;5077581;28;45343;-44
2023/04/08 12:41:52;;;;;;;;;2.75;2.25;;;;;20.52;35.91;101874.16;5077571;27;45407;-43
2023/04/08 12:44:18;;;;;;;;;3.00;3.00;;;;;20.52;35.57;101872.38;5077747;27;45465;-43
2023/04/08 12:46:44;;;;;;;;;3.00;3.00;;;;;20.52;35.60;101869.72;5075644;28;46494;-43
2023/04/08 12:49:10;;;;;;;;;2.00;2.00;;;;;20.53;35.97;101870.59;5076564;27;45458;-44
2023/04/08 12:51:36;;;;;;;;;3.00;3.00;;;;;20.53;35.57;101873.25;5077871;27;45393;-44
2023/04/08 12:54:02;;;;;;;;;6.50;3.00;;;;;20.53;36.11;101870.59;5059436;28;45421;-44
2023/04/08 12:56:29;;;;;;;;;5.00;3.75;;;;;20.54;36.16;101864.44;5075597;28;46629;-44
2023/04/08 12:58:57;;;;;;;;;5.00;3.00;;;;;20.55;35.87;101866.16;5075704;28;45281;-43
2023/04/08 13:01:22;;;;;;;;;3.00;3.00;;;;;20.55;35.88;101863.50;5077371;27;45314;-42
2023/04/08 13:03:48;;;;;;;;;2.50;2.50;;;;;20.55;35.87;101866.16;5077603;28;45571;-43
2023/04/08 13:06:13;;;;;;;;;3.00;3.00;;;;;20.55;35.98;101859.09;5077023;27;46204;-43
2023/04/08 13:08:38;;;;;;;;;6.00;3.00;;;;;20.56;35.75;101852.03;5077071;27;45324;-43
2023/04/08 13:11:04;;;;;;;;;5.75;3.75;;;;;20.55;35.77;101853.81;5077404;27;45447;-43
2023/04/08 13:13:29;;;;;;;;;5.00;3.75;;;;;20.57;35.96;101863.44;5077259;27;45248;-43
2023/04/08 13:15:55;;;;;;;;;3.50;3.00;;;;;20.55;35.91;101845.91;5076430;28;45487;-43
2023/04/08 13:18:21;;;;;;;;;3.50;2.50;;;;;20.55;36.07;101845.06;5076471;27;45345;-44
2023/04/08 13:20:46;;;;;;;;;2.00;2.00;;;;;20.57;36.03;101856.38;5077070;27;45483;-44
2023/04/08 13:23:13;;;;;;;;;3.00;3.00;;;;;20.57;36.01;101851.13;5076909;27;45445;-43
2023/04/08 13:25:38;;;;;;;;;5.50;3.00;;;;;20.57;35.89;101852.91;5087476;27;46189;-43
2023/04/08 13:28:04;;;;;;;;;3.00;3.00;;;;;20.57;35.46;101853.75;5096987;27;45320;-42
2023/04/08 13:30:29;;;;;;;;;6.75;4.00;;;;;20.53;35.59;101842.47;5097263;27;45842;-43
2023/04/08 13:32:55;;;;;;;;;3.50;2.25;;;;;20.54;35.59;101833.66;5095957;27;45325;-43
2023/04/08 13:35:20;;;;;;;;;2.00;2.00;;;;;20.57;35.61;101845.84;5088304;27;47318;-45
2023/04/08 13:37:45;;;;;;;;;4.50;2.50;;;;;20.57;35.57;101847.63;5076672;27;45267;-44
2023/04/08 13:40:11;;;;;;;;;4.75;3.00;;;;;20.57;35.58;101837.94;5075725;27;45271;-44
2023/04/08 13:42:36;;;;;;;;;5.00;4.00;;;;;20.54;36.05;101838.09;5076852;27;45323;-45
2023/04/08 13:45:02;;;;;;;;;4.00;2.00;;;;;20.55;35.87;101832.75;5076467;27;46198;-43
2023/04/08 13:47:27;;;;;;;;;4.00;2.75;;;;;20.57;35.90;101829.19;5076183;27;45311;-43
2023/04/08 13:49:52;;;;;;;;;3.75;2.50;;;;;20.58;35.56;101838.81;5076580;28;45189;-44
2023/04/08 13:52:18;;;;;;;;;4.00;4.00;;;;;20.56;35.81;101828.31;5076764;27;45376;-44
2023/04/08 13:54:44;;;;;;;;;2.75;2.00;;;;;20.57;36.07;101826.56;5076178;27;45320;-44
2023/04/08 13:57:09;;;;;;;;;2.00;2.00;;;;;20.57;35.97;101816.88;5075930;27;49941;-43
2023/04/08 13:59:34;;;;;;;;;2.50;2.50;;;;;20.57;35.75;101813.41;5075974;28;56808;-43
2023/04/08 14:02:00;;;;;;;;;3.00;2.00;;;;;20.57;35.95;101811.59;5076583;28;45338;-43
2023/04/08 14:04:26;;;;;;;;;2.00;2.00;;;;;20.57;35.76;101811.59;5076191;27;46132;-44
2023/04/08 14:06:52;;;;;;;;;2.50;2.00;;;;;20.57;36.10;101810.75;5075928;27;45335;-45
2023/04/08 14:09:17;;;;;;;;;3.00;3.00;;;;;20.55;35.67;101814.31;5076170;27;45504;-43
2023/04/08 14:11:43;;;;;;;;;4.00;3.00;;;;;20.57;35.55;101813.41;5094639;27;45532;-43
2023/04/08 14:14:08;;;;;;;;;2.50;2.00;;;;;20.55;36.10;101813.47;5096892;27;45881;-46
2023/04/08 14:16:34;;;;;;;;;3.50;3.50;;;;;20.55;35.90;101809.06;5078370;27;53977;-43
2023/04/08 14:19:00;;;;;;;;;3.75;3.75;;;;;20.58;35.82;101813.31;5076091;27;45274;-43
2023/04/08 14:21:25;;;;;;;;;2.00;2.00;;;;;20.57;35.60;101808.97;5076367;28;45329;-44
2023/04/08 14:23:51;;;;;;;;;2.00;2.00;;;;;20.57;35.97;101810.75;5075972;27;45330;-45
2023/04/08 14:26:16;;;;;;;;;3.00;3.00;;;;;20.57;36.01;101806.34;5075794;27;45319;-44
2023/04/08 14:28:42;;;;;;;;;3.00;3.00;;;;;20.57;35.53;101808.13;5075754;27;45233;-47
2023/04/08 14:31:07;;;;;;;;;2.00;2.00;;;;;20.57;36.07;101805.50;5076657;28;45209;-45
2023/04/08 14:33:32;;;;;;;;;4.00;3.50;;;;;20.54;35.81;101796.78;5075235;28;46137;-45
2023/04/08 14:35:58;;;;;;;;;3.00;3.00;;;;;20.55;36.07;101793.25;5075364;27;45412;-44
2023/04/08 14:38:24;;;;;;;;;4.00;2.00;;;;;20.56;35.57;101794.09;5075748;27;45341;-44
2023/04/08 14:40:50;;;;;;;;;3.75;3.00;;;;;20.55;35.89;101793.25;5075978;28;45888;-43
2023/04/08 14:43:15;;;;;;;;;2.00;2.00;;;;;20.55;35.83;101792.41;5075701;28;46240;-43
2023/04/08 14:45:41;;;;;;;;;2.25;2.25;;;;;20.54;35.57;101799.44;5076148;27;45898;-44
2023/04/08 14:48:06;;;;;;;;;2.00;2.00;;;;;20.54;35.66;101790.69;5075397;27;45342;-44
2023/04/08 14:50:31;;;;;;;;;2.25;2.00;;;;;20.54;35.62;101790.69;5090762;27;57894;-44
2023/04/08 14:52:57;;;;;;;;;3.25;2.00;;;;;20.53;35.78;101792.44;5094151;27;45970;-43
2023/04/08 14:55:24;;;;;;;;;2.00;2.00;;;;;20.52;35.92;101793.38;5099335;27;45962;-43
2023/04/08 14:57:49;;;;;;;;;2.50;2.50;;;;;20.51;35.52;101791.66;5099268;27;45484;-42
2023/04/08 15:00:14;;;;;;;;;3.00;3.00;;;;;20.53;35.76;101788.97;5099230;27;47604;-45
2023/04/08 15:02:40;;;;;;;;;2.00;2.00;;;;;20.53;36.08;101786.34;5099533;27;46150;-43